sensor_id;sensor_type;location;lat;lon;timestamp;P1;durP1;ratioP1;P2;durP2;ratioP2
23658;SDS011;12006;42.666;23.326;2023-05-29T00:00:10;4.37;;;3.97;;
23658;SDS011;12006;42.666;23.326;2023-05-29T00:02:38;4.53;;;4.00;;
23658;SDS011;12006;42.666;23.326;2023-05-29T00:05:04;5.70;;;3.87;;
23658;SDS011;12006;42.666;23.326;2023-05-29T00:07:30;5.83;;;3.90;;
23658;SDS011;12006;42.666;23.326;2023-05-29T00:09:57;4.53;;;4.13;;
23658;SDS011;12006;42.666;23.326;2023-05-29T00:12:23;4.93;;;4.10;;
23658;SDS011;12006;42.666;23.326;2023-05-29T00:14:49;5.50;;;3.90;;
23658;SDS011;12006;42.666;23.326;2023-05-29T00:17:15;8.33;;;4.50;;
23658;SDS011;12006;42.666;23.326;2023-05-29T00:19:42;6.37;;;4.17;;
23658;SDS011;12006;42.666;23.326;2023-05-29T00:22:08;5.77;;;4.00;;
23658;SDS011;12006;42.666;23.326;2023-05-29T00:24:33;4.83;;;4.20;;
23658;SDS011;12006;42.666;23.326;2023-05-29T00:26:58;4.87;;;3.73;;
23658;SDS011;12006;42.666;23.326;2023-05-29T00:29:24;6.53;;;4.33;;
23658;SDS011;12006;42.666;23.326;2023-05-29T00:31:49;4.60;;;4.13;;
23658;SDS011;12006;42.666;23.326;2023-05-29T00:34:18;4.67;;;4.17;;
23658;SDS011;12006;42.666;23.326;2023-05-29T00:36:44;4.60;;;3.93;;
23658;SDS011;12006;42.666;23.326;2023-05-29T00:39:10;6.07;;;4.40;;
23658;SDS011;12006;42.666;23.326;2023-05-29T00:41:35;6.63;;;4.77;;
23658;SDS011;12006;42.666;23.326;2023-05-29T00:44:01;4.87;;;4.37;;
23658;SDS011;12006;42.666;23.326;2023-05-29T00:46:26;6.47;;;4.53;;
23658;SDS011;12006;42.666;23.326;2023-05-29T00:48:52;5.20;;;4.10;;
23658;SDS011;12006;42.666;23.326;2023-05-29T00:51:18;5.20;;;4.00;;
23658;SDS011;12006;42.666;23.326;2023-05-29T00:53:44;5.80;;;4.00;;
23658;SDS011;12006;42.666;23.326;2023-05-29T00:56:10;6.73;;;4.23;;
23658;SDS011;12006;42.666;23.326;2023-05-29T00:58:36;5.10;;;4.33;;
23658;SDS011;12006;42.666;23.326;2023-05-29T01:01:02;4.60;;;4.07;;
23658;SDS011;12006;42.666;23.326;2023-05-29T01:03:28;5.57;;;4.43;;
23658;SDS011;12006;42.666;23.326;2023-05-29T01:05:54;5.97;;;4.33;;
23658;SDS011;12006;42.666;23.326;2023-05-29T01:08:19;5.90;;;4.33;;
23658;SDS011;12006;42.666;23.326;2023-05-29T01:10:45;5.20;;;4.63;;
23658;SDS011;12006;42.666;23.326;2023-05-29T01:13:18;6.23;;;5.20;;
23658;SDS011;12006;42.666;23.326;2023-05-29T01:18:55;5.63;;;4.40;;
23658;SDS011;12006;42.666;23.326;2023-05-29T01:27:09;6.50;;;4.80;;
23658;SDS011;12006;42.666;23.326;2023-05-29T01:29:36;7.70;;;4.57;;
23658;SDS011;12006;42.666;23.326;2023-05-29T01:32:04;6.23;;;4.53;;
23658;SDS011;12006;42.666;23.326;2023-05-29T01:34:30;7.33;;;5.07;;
23658;SDS011;12006;42.666;23.326;2023-05-29T01:36:56;6.20;;;4.60;;
23658;SDS011;12006;42.666;23.326;2023-05-29T01:39:22;5.73;;;4.60;;
23658;SDS011;12006;42.666;23.326;2023-05-29T01:41:48;5.43;;;4.67;;
23658;SDS011;12006;42.666;23.326;2023-05-29T01:44:15;6.67;;;5.13;;
23658;SDS011;12006;42.666;23.326;2023-05-29T01:46:41;6.50;;;4.37;;
23658;SDS011;12006;42.666;23.326;2023-05-29T01:49:08;5.93;;;4.90;;
23658;SDS011;12006;42.666;23.326;2023-05-29T01:51:36;7.03;;;4.90;;
23658;SDS011;12006;42.666;23.326;2023-05-29T01:54:02;6.23;;;4.73;;
23658;SDS011;12006;42.666;23.326;2023-05-29T01:56:28;7.57;;;5.73;;
23658;SDS011;12006;42.666;23.326;2023-05-29T01:58:55;7.23;;;4.80;;
23658;SDS011;12006;42.666;23.326;2023-05-29T02:01:21;5.67;;;4.93;;
23658;SDS011;12006;42.666;23.326;2023-05-29T02:03:48;7.10;;;5.30;;
23658;SDS011;12006;42.666;23.326;2023-05-29T02:06:13;7.07;;;5.27;;
23658;SDS011;12006;42.666;23.326;2023-05-29T02:08:39;7.10;;;5.43;;
23658;SDS011;12006;42.666;23.326;2023-05-29T02:11:05;5.43;;;4.93;;
23658;SDS011;12006;42.666;23.326;2023-05-29T02:13:31;7.67;;;5.37;;
23658;SDS011;12006;42.666;23.326;2023-05-29T02:15:56;5.40;;;4.90;;
23658;SDS011;12006;42.666;23.326;2023-05-29T02:18:22;6.73;;;5.27;;
23658;SDS011;12006;42.666;23.326;2023-05-29T02:20:47;7.93;;;5.13;;
23658;SDS011;12006;42.666;23.326;2023-05-29T02:23:13;6.07;;;4.50;;
23658;SDS011;12006;42.666;23.326;2023-05-29T02:25:40;6.50;;;5.00;;
23658;SDS011;12006;42.666;23.326;2023-05-29T02:28:05;7.07;;;5.73;;
23658;SDS011;12006;42.666;23.326;2023-05-29T02:30:31;6.07;;;4.73;;
23658;SDS011;12006;42.666;23.326;2023-05-29T02:32:56;6.87;;;5.20;;
23658;SDS011;12006;42.666;23.326;2023-05-29T02:35:22;5.73;;;4.97;;
23658;SDS011;12006;42.666;23.326;2023-05-29T02:37:51;7.10;;;4.77;;
23658;SDS011;12006;42.666;23.326;2023-05-29T02:40:17;5.13;;;4.57;;
23658;SDS011;12006;42.666;23.326;2023-05-29T02:42:43;6.30;;;4.67;;
23658;SDS011;12006;42.666;23.326;2023-05-29T02:45:09;6.83;;;5.40;;
23658;SDS011;12006;42.666;23.326;2023-05-29T02:47:34;6.67;;;4.93;;
23658;SDS011;12006;42.666;23.326;2023-05-29T02:50:00;5.63;;;4.90;;
23658;SDS011;12006;42.666;23.326;2023-05-29T02:52:26;7.00;;;5.67;;
23658;SDS011;12006;42.666;23.326;2023-05-29T02:54:52;8.00;;;5.60;;
23658;SDS011;12006;42.666;23.326;2023-05-29T02:57:19;7.37;;;5.50;;
23658;SDS011;12006;42.666;23.326;2023-05-29T02:59:45;6.43;;;5.40;;
23658;SDS011;12006;42.666;23.326;2023-05-29T03:02:11;6.70;;;5.53;;
23658;SDS011;12006;42.666;23.326;2023-05-29T03:04:36;6.80;;;5.37;;
23658;SDS011;12006;42.666;23.326;2023-05-29T03:07:02;6.77;;;5.60;;
23658;SDS011;12006;42.666;23.326;2023-05-29T03:09:27;7.97;;;5.47;;
23658;SDS011;12006;42.666;23.326;2023-05-29T03:11:53;7.90;;;4.97;;
23658;SDS011;12006;42.666;23.326;2023-05-29T03:14:18;8.17;;;5.23;;
23658;SDS011;12006;42.666;23.326;2023-05-29T03:16:44;6.03;;;4.93;;
23658;SDS011;12006;42.666;23.326;2023-05-29T03:19:09;7.67;;;5.30;;
23658;SDS011;12006;42.666;23.326;2023-05-29T03:21:35;8.30;;;6.30;;
23658;SDS011;12006;42.666;23.326;2023-05-29T03:24:01;17.33;;;11.23;;
23658;SDS011;12006;42.666;23.326;2023-05-29T03:26:28;15.60;;;11.03;;
23658;SDS011;12006;42.666;23.326;2023-05-29T03:28:53;16.20;;;9.57;;
23658;SDS011;12006;42.666;23.326;2023-05-29T03:31:20;11.10;;;8.47;;
23658;SDS011;12006;42.666;23.326;2023-05-29T03:33:45;11.40;;;8.70;;
23658;SDS011;12006;42.666;23.326;2023-05-29T03:36:11;9.80;;;8.43;;
23658;SDS011;12006;42.666;23.326;2023-05-29T03:38:37;11.80;;;7.40;;
23658;SDS011;12006;42.666;23.326;2023-05-29T03:41:02;9.60;;;7.27;;
23658;SDS011;12006;42.666;23.326;2023-05-29T03:43:28;7.97;;;5.83;;
23658;SDS011;12006;42.666;23.326;2023-05-29T03:45:53;9.03;;;6.10;;
23658;SDS011;12006;42.666;23.326;2023-05-29T03:48:19;8.70;;;6.20;;
23658;SDS011;12006;42.666;23.326;2023-05-29T03:50:45;6.93;;;5.90;;
23658;SDS011;12006;42.666;23.326;2023-05-29T03:53:11;8.27;;;6.50;;
23658;SDS011;12006;42.666;23.326;2023-05-29T03:55:37;8.43;;;6.30;;
23658;SDS011;12006;42.666;23.326;2023-05-29T03:58:02;7.63;;;5.63;;
23658;SDS011;12006;42.666;23.326;2023-05-29T04:00:28;9.73;;;6.40;;
23658;SDS011;12006;42.666;23.326;2023-05-29T04:02:54;7.03;;;6.40;;
23658;SDS011;12006;42.666;23.326;2023-05-29T04:05:20;6.77;;;5.50;;
23658;SDS011;12006;42.666;23.326;2023-05-29T04:07:45;11.60;;;8.03;;
23658;SDS011;12006;42.666;23.326;2023-05-29T04:10:11;8.20;;;6.47;;
23658;SDS011;12006;42.666;23.326;2023-05-29T04:12:36;9.57;;;8.23;;
23658;SDS011;12006;42.666;23.326;2023-05-29T04:15:02;8.30;;;6.60;;
23658;SDS011;12006;42.666;23.326;2023-05-29T04:17:28;8.17;;;6.53;;
23658;SDS011;12006;42.666;23.326;2023-05-29T04:19:53;7.60;;;6.70;;
23658;SDS011;12006;42.666;23.326;2023-05-29T04:22:19;8.70;;;6.80;;
23658;SDS011;12006;42.666;23.326;2023-05-29T04:24:45;9.57;;;6.93;;
23658;SDS011;12006;42.666;23.326;2023-05-29T04:27:11;8.20;;;7.03;;
23658;SDS011;12006;42.666;23.326;2023-05-29T04:29:38;10.20;;;6.55;;
23658;SDS011;12006;42.666;23.326;2023-05-29T04:32:05;9.32;;;6.50;;
23658;SDS011;12006;42.666;23.326;2023-05-29T04:34:33;8.38;;;6.47;;
23658;SDS011;12006;42.666;23.326;2023-05-29T04:36:59;8.23;;;6.45;;
23658;SDS011;12006;42.666;23.326;2023-05-29T04:39:25;8.70;;;6.93;;
23658;SDS011;12006;42.666;23.326;2023-05-29T04:41:50;9.48;;;6.35;;
23658;SDS011;12006;42.666;23.326;2023-05-29T04:44:16;8.45;;;6.47;;
23658;SDS011;12006;42.666;23.326;2023-05-29T04:46:43;7.95;;;6.15;;
23658;SDS011;12006;42.666;23.326;2023-05-29T04:49:09;7.63;;;6.05;;
23658;SDS011;12006;42.666;23.326;2023-05-29T04:51:35;8.20;;;6.47;;
23658;SDS011;12006;42.666;23.326;2023-05-29T04:54:01;14.38;;;12.88;;
23658;SDS011;12006;42.666;23.326;2023-05-29T04:56:27;10.77;;;8.68;;
23658;SDS011;12006;42.666;23.326;2023-05-29T04:58:53;11.40;;;9.38;;
23658;SDS011;12006;42.666;23.326;2023-05-29T05:01:19;9.85;;;7.45;;
23658;SDS011;12006;42.666;23.326;2023-05-29T05:03:44;7.03;;;6.32;;
23658;SDS011;12006;42.666;23.326;2023-05-29T05:06:10;8.90;;;6.70;;
23658;SDS011;12006;42.666;23.326;2023-05-29T05:08:37;6.03;;;4.55;;
23658;SDS011;12006;42.666;23.326;2023-05-29T05:11:03;6.35;;;5.20;;
23658;SDS011;12006;42.666;23.326;2023-05-29T05:13:28;6.20;;;4.93;;
23658;SDS011;12006;42.666;23.326;2023-05-29T05:15:54;7.63;;;5.13;;
23658;SDS011;12006;42.666;23.326;2023-05-29T05:18:19;6.22;;;3.83;;
23658;SDS011;12006;42.666;23.326;2023-05-29T05:20:45;4.38;;;3.80;;
23658;SDS011;12006;42.666;23.326;2023-05-29T05:23:11;4.90;;;4.07;;
23658;SDS011;12006;42.666;23.326;2023-05-29T05:25:36;4.95;;;3.72;;
23658;SDS011;12006;42.666;23.326;2023-05-29T05:28:03;5.78;;;4.20;;
23658;SDS011;12006;42.666;23.326;2023-05-29T05:30:29;5.38;;;4.50;;
23658;SDS011;12006;42.666;23.326;2023-05-29T05:32:54;5.32;;;4.75;;
23658;SDS011;12006;42.666;23.326;2023-05-29T05:35:21;3.95;;;3.65;;
23658;SDS011;12006;42.666;23.326;2023-05-29T05:37:46;5.03;;;4.05;;
23658;SDS011;12006;42.666;23.326;2023-05-29T05:40:12;10.30;;;5.57;;
23658;SDS011;12006;42.666;23.326;2023-05-29T05:42:37;11.48;;;5.68;;
23658;SDS011;12006;42.666;23.326;2023-05-29T05:45:03;13.07;;;5.07;;
23658;SDS011;12006;42.666;23.326;2023-05-29T05:47:29;5.28;;;3.97;;
23658;SDS011;12006;42.666;23.326;2023-05-29T05:49:55;3.90;;;3.50;;
23658;SDS011;12006;42.666;23.326;2023-05-29T05:52:21;4.47;;;3.38;;
23658;SDS011;12006;42.666;23.326;2023-05-29T05:54:47;8.43;;;5.20;;
23658;SDS011;12006;42.666;23.326;2023-05-29T05:57:12;6.65;;;5.57;;
23658;SDS011;12006;42.666;23.326;2023-05-29T05:59:38;5.35;;;4.85;;
23658;SDS011;12006;42.666;23.326;2023-05-29T06:02:04;4.10;;;3.70;;
23658;SDS011;12006;42.666;23.326;2023-05-29T06:04:29;5.15;;;4.20;;
23658;SDS011;12006;42.666;23.326;2023-05-29T06:06:55;5.25;;;4.32;;
23658;SDS011;12006;42.666;23.326;2023-05-29T06:09:21;4.35;;;3.47;;
23658;SDS011;12006;42.666;23.326;2023-05-29T06:11:46;4.95;;;3.10;;
23658;SDS011;12006;42.666;23.326;2023-05-29T06:14:12;4.07;;;3.05;;
23658;SDS011;12006;42.666;23.326;2023-05-29T06:16:38;3.50;;;3.17;;
23658;SDS011;12006;42.666;23.326;2023-05-29T06:19:04;3.88;;;3.58;;
23658;SDS011;12006;42.666;23.326;2023-05-29T06:21:29;3.17;;;2.88;;
23658;SDS011;12006;42.666;23.326;2023-05-29T06:23:55;3.25;;;2.85;;
23658;SDS011;12006;42.666;23.326;2023-05-29T06:26:20;3.55;;;2.80;;
23658;SDS011;12006;42.666;23.326;2023-05-29T06:28:46;4.93;;;3.03;;
23658;SDS011;12006;42.666;23.326;2023-05-29T06:31:12;5.72;;;4.45;;
23658;SDS011;12006;42.666;23.326;2023-05-29T06:33:37;3.35;;;3.05;;
23658;SDS011;12006;42.666;23.326;2023-05-29T06:36:03;4.40;;;3.38;;
23658;SDS011;12006;42.666;23.326;2023-05-29T06:38:28;3.65;;;2.85;;
23658;SDS011;12006;42.666;23.326;2023-05-29T06:40:54;4.53;;;3.22;;
23658;SDS011;12006;42.666;23.326;2023-05-29T06:43:19;2.75;;;2.50;;
23658;SDS011;12006;42.666;23.326;2023-05-29T06:45:44;2.88;;;2.67;;
23658;SDS011;12006;42.666;23.326;2023-05-29T06:48:10;1.90;;;1.80;;
23658;SDS011;12006;42.666;23.326;2023-05-29T06:50:35;2.60;;;2.00;;
23658;SDS011;12006;42.666;23.326;2023-05-29T06:53:01;2.60;;;2.40;;
23658;SDS011;12006;42.666;23.326;2023-05-29T06:55:26;2.47;;;2.28;;
23658;SDS011;12006;42.666;23.326;2023-05-29T06:57:52;5.32;;;2.50;;
23658;SDS011;12006;42.666;23.326;2023-05-29T07:00:17;4.05;;;2.83;;
23658;SDS011;12006;42.666;23.326;2023-05-29T07:02:42;2.22;;;2.03;;
23658;SDS011;12006;42.666;23.326;2023-05-29T07:05:08;2.63;;;2.20;;
23658;SDS011;12006;42.666;23.326;2023-05-29T07:07:35;2.58;;;1.98;;
23658;SDS011;12006;42.666;23.326;2023-05-29T07:10:00;3.65;;;2.33;;
23658;SDS011;12006;42.666;23.326;2023-05-29T07:12:26;2.20;;;2.00;;
23658;SDS011;12006;42.666;23.326;2023-05-29T07:14:52;2.13;;;1.90;;
23658;SDS011;12006;42.666;23.326;2023-05-29T07:17:17;2.22;;;2.00;;
23658;SDS011;12006;42.666;23.326;2023-05-29T07:19:42;1.67;;;1.58;;
23658;SDS011;12006;42.666;23.326;2023-05-29T07:22:08;2.33;;;1.98;;
23658;SDS011;12006;42.666;23.326;2023-05-29T07:24:33;2.13;;;1.80;;
23658;SDS011;12006;42.666;23.326;2023-05-29T07:26:59;2.08;;;1.95;;
23658;SDS011;12006;42.666;23.326;2023-05-29T07:29:24;2.42;;;2.22;;
23658;SDS011;12006;42.666;23.326;2023-05-29T07:31:50;2.13;;;1.85;;
23658;SDS011;12006;42.666;23.326;2023-05-29T07:34:16;2.08;;;1.98;;
23658;SDS011;12006;42.666;23.326;2023-05-29T07:39:27;2.38;;;2.15;;
23658;SDS011;12006;42.666;23.326;2023-05-29T07:41:53;3.08;;;2.20;;
23658;SDS011;12006;42.666;23.326;2023-05-29T07:44:18;2.40;;;2.20;;
23658;SDS011;12006;42.666;23.326;2023-05-29T07:46:44;2.33;;;2.13;;
23658;SDS011;12006;42.666;23.326;2023-05-29T07:49:10;3.25;;;2.40;;
23658;SDS011;12006;42.666;23.326;2023-05-29T07:51:36;2.75;;;2.50;;
23658;SDS011;12006;42.666;23.326;2023-05-29T07:54:01;3.10;;;2.80;;
23658;SDS011;12006;42.666;23.326;2023-05-29T07:56:27;3.40;;;2.65;;
23658;SDS011;12006;42.666;23.326;2023-05-29T07:58:52;3.22;;;2.50;;
23658;SDS011;12006;42.666;23.326;2023-05-29T08:01:19;2.42;;;2.15;;
23658;SDS011;12006;42.666;23.326;2023-05-29T08:03:46;2.42;;;2.22;;
23658;SDS011;12006;42.666;23.326;2023-05-29T08:06:11;3.35;;;3.05;;
23658;SDS011;12006;42.666;23.326;2023-05-29T08:08:37;2.92;;;2.20;;
23658;SDS011;12006;42.666;23.326;2023-05-29T08:11:02;3.38;;;3.03;;
23658;SDS011;12006;42.666;23.326;2023-05-29T08:13:29;3.08;;;2.55;;
23658;SDS011;12006;42.666;23.326;2023-05-29T08:15:55;3.25;;;2.20;;
23658;SDS011;12006;42.666;23.326;2023-05-29T08:18:20;2.65;;;2.15;;
23658;SDS011;12006;42.666;23.326;2023-05-29T08:20:46;5.07;;;2.95;;
23658;SDS011;12006;42.666;23.326;2023-05-29T08:23:11;2.33;;;1.90;;
23658;SDS011;12006;42.666;23.326;2023-05-29T08:25:37;2.05;;;1.73;;
23658;SDS011;12006;42.666;23.326;2023-05-29T08:28:02;3.03;;;2.08;;
23658;SDS011;12006;42.666;23.326;2023-05-29T08:30:27;2.95;;;1.88;;
23658;SDS011;12006;42.666;23.326;2023-05-29T08:32:53;3.95;;;2.55;;
23658;SDS011;12006;42.666;23.326;2023-05-29T08:35:18;3.30;;;3.00;;
23658;SDS011;12006;42.666;23.326;2023-05-29T08:37:43;8.52;;;7.10;;
23658;SDS011;12006;42.666;23.326;2023-05-29T08:40:09;7.28;;;6.57;;
23658;SDS011;12006;42.666;23.326;2023-05-29T08:42:40;3.55;;;3.25;;
23658;SDS011;12006;42.666;23.326;2023-05-29T08:45:12;3.45;;;3.15;;
23658;SDS011;12006;42.666;23.326;2023-05-29T08:47:40;2.60;;;2.40;;
23658;SDS011;12006;42.666;23.326;2023-05-29T08:50:07;2.47;;;2.13;;
23658;SDS011;12006;42.666;23.326;2023-05-29T08:52:33;2.13;;;2.03;;
23658;SDS011;12006;42.666;23.326;2023-05-29T08:55:03;2.35;;;2.15;;
23658;SDS011;12006;42.666;23.326;2023-05-29T08:57:29;2.25;;;2.10;;
23658;SDS011;12006;42.666;23.326;2023-05-29T08:59:56;2.63;;;2.38;;
23658;SDS011;12006;42.666;23.326;2023-05-29T09:02:22;2.75;;;2.33;;
23658;SDS011;12006;42.666;23.326;2023-05-29T09:04:48;2.45;;;1.98;;
23658;SDS011;12006;42.666;23.326;2023-05-29T09:07:21;2.67;;;2.10;;
23658;SDS011;12006;42.666;23.326;2023-05-29T09:09:47;2.13;;;1.92;;
23658;SDS011;12006;42.666;23.326;2023-05-29T09:12:13;2.47;;;2.28;;
23658;SDS011;12006;42.666;23.326;2023-05-29T09:14:43;2.90;;;2.70;;
23658;SDS011;12006;42.666;23.326;2023-05-29T09:17:10;4.18;;;2.30;;
23658;SDS011;12006;42.666;23.326;2023-05-29T09:19:37;2.47;;;2.28;;
23658;SDS011;12006;42.666;23.326;2023-05-29T09:24:32;2.90;;;2.70;;
23658;SDS011;12006;42.666;23.326;2023-05-29T09:26:59;3.92;;;3.60;;
23658;SDS011;12006;42.666;23.326;2023-05-29T09:29:26;2.75;;;2.55;;
23658;SDS011;12006;42.666;23.326;2023-05-29T09:31:55;3.20;;;2.75;;
23658;SDS011;12006;42.666;23.326;2023-05-29T09:34:23;4.07;;;3.25;;
23658;SDS011;12006;42.666;23.326;2023-05-29T09:36:50;3.42;;;3.13;;
23658;SDS011;12006;42.666;23.326;2023-05-29T09:39:16;2.90;;;2.70;;
23658;SDS011;12006;42.666;23.326;2023-05-29T09:41:43;4.53;;;2.70;;
23658;SDS011;12006;42.666;23.326;2023-05-29T09:44:12;2.72;;;2.50;;
23658;SDS011;12006;42.666;23.326;2023-05-29T09:46:42;2.38;;;2.17;;
23658;SDS011;12006;42.666;23.326;2023-05-29T09:49:11;3.33;;;2.20;;
23658;SDS011;12006;42.666;23.326;2023-05-29T09:51:38;2.90;;;2.60;;
23658;SDS011;12006;42.666;23.326;2023-05-29T09:54:26;5.40;;;4.90;;
23658;SDS011;12006;42.666;23.326;2023-05-29T09:56:53;3.15;;;2.85;;
23658;SDS011;12006;42.666;23.326;2023-05-29T09:59:21;2.17;;;1.98;;
23658;SDS011;12006;42.666;23.326;2023-05-29T10:01:49;3.45;;;3.00;;
23658;SDS011;12006;42.666;23.326;2023-05-29T10:04:25;3.72;;;3.38;;
23658;SDS011;12006;42.666;23.326;2023-05-29T10:06:50;4.28;;;3.55;;
23658;SDS011;12006;42.666;23.326;2023-05-29T10:09:18;2.70;;;2.50;;
23658;SDS011;12006;42.666;23.326;2023-05-29T10:11:47;3.10;;;2.72;;
23658;SDS011;12006;42.666;23.326;2023-05-29T10:14:14;3.47;;;3.17;;
23658;SDS011;12006;42.666;23.326;2023-05-29T10:16:46;5.18;;;4.65;;
23658;SDS011;12006;42.666;23.326;2023-05-29T10:19:16;4.00;;;3.60;;
23658;SDS011;12006;42.666;23.326;2023-05-29T10:21:47;5.13;;;4.63;;
23658;SDS011;12006;42.666;23.326;2023-05-29T10:24:14;4.10;;;3.70;;
23658;SDS011;12006;42.666;23.326;2023-05-29T10:26:40;3.05;;;2.72;;
23658;SDS011;12006;42.666;23.326;2023-05-29T10:37:09;2.70;;;2.50;;
23658;SDS011;12006;42.666;23.326;2023-05-29T10:39:45;2.58;;;2.38;;
23658;SDS011;12006;42.666;23.326;2023-05-29T10:42:40;2.50;;;2.30;;
23658;SDS011;12006;42.666;23.326;2023-05-29T10:45:10;2.63;;;2.42;;
23658;SDS011;12006;42.666;23.326;2023-05-29T10:47:38;2.50;;;2.15;;
23658;SDS011;12006;42.666;23.326;2023-05-29T10:50:04;2.67;;;2.47;;
23658;SDS011;12006;42.666;23.326;2023-05-29T10:52:33;2.53;;;2.33;;
23658;SDS011;12006;42.666;23.326;2023-05-29T10:55:00;3.50;;;2.90;;
23658;SDS011;12006;42.666;23.326;2023-05-29T10:57:28;4.55;;;2.72;;
23658;SDS011;12006;42.666;23.326;2023-05-29T11:00:04;2.63;;;2.42;;
23658;SDS011;12006;42.666;23.326;2023-05-29T11:02:38;3.13;;;2.83;;
23658;SDS011;12006;42.666;23.326;2023-05-29T11:05:05;3.47;;;3.17;;
23658;SDS011;12006;42.666;23.326;2023-05-29T11:07:32;4.60;;;4.20;;
23658;SDS011;12006;42.666;23.326;2023-05-29T11:10:12;10.73;;;9.75;;
23658;SDS011;12006;42.666;23.326;2023-05-29T11:12:56;15.57;;;12.60;;
23658;SDS011;12006;42.666;23.326;2023-05-29T11:15:23;6.93;;;6.03;;
23658;SDS011;12006;42.666;23.326;2023-05-29T11:17:49;3.97;;;3.58;;
23658;SDS011;12006;42.666;23.326;2023-05-29T11:25:25;3.10;;;2.20;;
23658;SDS011;12006;42.666;23.326;2023-05-29T11:27:51;3.47;;;2.80;;
23658;SDS011;12006;42.666;23.326;2023-05-29T11:30:19;2.67;;;2.47;;
23658;SDS011;12006;42.666;23.326;2023-05-29T11:32:46;2.60;;;2.40;;
23658;SDS011;12006;42.666;23.326;2023-05-29T11:35:12;2.60;;;2.40;;
23658;SDS011;12006;42.666;23.326;2023-05-29T11:37:39;3.20;;;2.78;;
23658;SDS011;12006;42.666;23.326;2023-05-29T11:40:11;3.65;;;3.30;;
23658;SDS011;12006;42.666;23.326;2023-05-29T11:42:45;3.40;;;3.10;;
23658;SDS011;12006;42.666;23.326;2023-05-29T11:45:13;3.05;;;2.70;;
23658;SDS011;12006;42.666;23.326;2023-05-29T11:48:02;5.38;;;3.08;;
23658;SDS011;12006;42.666;23.326;2023-05-29T11:50:30;4.50;;;2.95;;
23658;SDS011;12006;42.666;23.326;2023-05-29T11:52:57;2.60;;;2.40;;
23658;SDS011;12006;42.666;23.326;2023-05-29T11:55:24;3.20;;;2.90;;
23658;SDS011;12006;42.666;23.326;2023-05-29T11:57:51;2.70;;;2.50;;
23658;SDS011;12006;42.666;23.326;2023-05-29T12:00:21;4.70;;;4.13;;
23658;SDS011;12006;42.666;23.326;2023-05-29T12:02:47;3.35;;;3.10;;
23658;SDS011;12006;42.666;23.326;2023-05-29T12:05:15;3.60;;;2.80;;
23658;SDS011;12006;42.666;23.326;2023-05-29T12:07:46;3.95;;;2.78;;
23658;SDS011;12006;42.666;23.326;2023-05-29T12:10:20;3.47;;;3.10;;
23658;SDS011;12006;42.666;23.326;2023-05-29T12:12:55;3.78;;;3.42;;
23658;SDS011;12006;42.666;23.326;2023-05-29T12:15:23;3.92;;;3.33;;
23658;SDS011;12006;42.666;23.326;2023-05-29T12:17:49;3.63;;;3.05;;
23658;SDS011;12006;42.666;23.326;2023-05-29T12:20:15;3.85;;;3.45;;
23658;SDS011;12006;42.666;23.326;2023-05-29T12:22:42;3.35;;;3.05;;
23658;SDS011;12006;42.666;23.326;2023-05-29T12:25:15;3.22;;;2.70;;
23658;SDS011;12006;42.666;23.326;2023-05-29T12:27:42;3.80;;;2.90;;
23658;SDS011;12006;42.666;23.326;2023-05-29T12:30:19;3.72;;;3.08;;
23658;SDS011;12006;42.666;23.326;2023-05-29T12:32:50;3.45;;;3.10;;
23658;SDS011;12006;42.666;23.326;2023-05-29T12:35:22;3.83;;;3.47;;
23658;SDS011;12006;42.666;23.326;2023-05-29T12:40:24;3.97;;;3.63;;
23658;SDS011;12006;42.666;23.326;2023-05-29T12:45:27;4.40;;;3.60;;
23658;SDS011;12006;42.666;23.326;2023-05-29T12:47:57;5.25;;;4.10;;
23658;SDS011;12006;42.666;23.326;2023-05-29T12:50:35;5.55;;;4.57;;
23658;SDS011;12006;42.666;23.326;2023-05-29T12:55:36;3.00;;;2.80;;
23658;SDS011;12006;42.666;23.326;2023-05-29T12:58:07;3.17;;;2.90;;
23658;SDS011;12006;42.666;23.326;2023-05-29T13:00:34;3.35;;;3.03;;
23658;SDS011;12006;42.666;23.326;2023-05-29T13:03:01;3.10;;;2.80;;
23658;SDS011;12006;42.666;23.326;2023-05-29T13:05:26;3.22;;;2.90;;
23658;SDS011;12006;42.666;23.326;2023-05-29T13:07:52;8.45;;;6.38;;
23658;SDS011;12006;42.666;23.326;2023-05-29T13:10:18;6.55;;;5.53;;
23658;SDS011;12006;42.666;23.326;2023-05-29T13:12:45;4.00;;;3.08;;
23658;SDS011;12006;42.666;23.326;2023-05-29T13:15:11;2.88;;;2.67;;
23658;SDS011;12006;42.666;23.326;2023-05-29T13:17:38;3.80;;;3.28;;
23658;SDS011;12006;42.666;23.326;2023-05-29T13:20:10;3.90;;;2.40;;
23658;SDS011;12006;42.666;23.326;2023-05-29T13:22:40;2.25;;;2.05;;
23658;SDS011;12006;42.666;23.326;2023-05-29T13:25:07;5.60;;;3.25;;
23658;SDS011;12006;42.666;23.326;2023-05-29T13:27:34;3.25;;;2.90;;
23658;SDS011;12006;42.666;23.326;2023-05-29T13:30:02;3.08;;;2.83;;
23658;SDS011;12006;42.666;23.326;2023-05-29T13:32:28;3.28;;;2.97;;
23658;SDS011;12006;42.666;23.326;2023-05-29T13:34:53;4.43;;;3.30;;
23658;SDS011;12006;42.666;23.326;2023-05-29T13:37:19;4.47;;;4.07;;
23658;SDS011;12006;42.666;23.326;2023-05-29T13:39:44;5.07;;;4.43;;
23658;SDS011;12006;42.666;23.326;2023-05-29T13:42:10;5.13;;;4.30;;
23658;SDS011;12006;42.666;23.326;2023-05-29T13:44:36;4.50;;;4.03;;
23658;SDS011;12006;42.666;23.326;2023-05-29T13:47:02;4.78;;;4.22;;
23658;SDS011;12006;42.666;23.326;2023-05-29T13:49:28;5.35;;;4.57;;
23658;SDS011;12006;42.666;23.326;2023-05-29T13:51:53;6.15;;;4.47;;
23658;SDS011;12006;42.666;23.326;2023-05-29T13:54:18;5.10;;;4.13;;
23658;SDS011;12006;42.666;23.326;2023-05-29T13:56:44;7.10;;;5.35;;
23658;SDS011;12006;42.666;23.326;2023-05-29T13:59:09;5.22;;;4.72;;
23658;SDS011;12006;42.666;23.326;2023-05-29T14:01:35;5.43;;;4.30;;
23658;SDS011;12006;42.666;23.326;2023-05-29T14:04:00;4.78;;;4.35;;
23658;SDS011;12006;42.666;23.326;2023-05-29T14:06:26;5.32;;;4.40;;
23658;SDS011;12006;42.666;23.326;2023-05-29T14:08:51;5.82;;;5.22;;
23658;SDS011;12006;42.666;23.326;2023-05-29T14:11:17;6.20;;;3.90;;
23658;SDS011;12006;42.666;23.326;2023-05-29T14:13:43;3.53;;;2.17;;
23658;SDS011;12006;42.666;23.326;2023-05-29T14:16:09;1.92;;;1.50;;
23658;SDS011;12006;42.666;23.326;2023-05-29T14:18:34;1.52;;;1.40;;
23658;SDS011;12006;42.666;23.326;2023-05-29T14:20:59;3.00;;;2.08;;
23658;SDS011;12006;42.666;23.326;2023-05-29T14:23:25;3.17;;;1.85;;
23658;SDS011;12006;42.666;23.326;2023-05-29T14:25:50;3.17;;;2.40;;
23658;SDS011;12006;42.666;23.326;2023-05-29T14:28:18;1.65;;;1.55;;
23658;SDS011;12006;42.666;23.326;2023-05-29T14:30:44;4.63;;;2.58;;
23658;SDS011;12006;42.666;23.326;2023-05-29T14:33:10;2.22;;;2.03;;
23658;SDS011;12006;42.666;23.326;2023-05-29T14:35:35;2.22;;;2.03;;
23658;SDS011;12006;42.666;23.326;2023-05-29T14:38:01;2.72;;;2.00;;
23658;SDS011;12006;42.666;23.326;2023-05-29T14:40:27;1.65;;;1.55;;
23658;SDS011;12006;42.666;23.326;2023-05-29T14:42:52;1.80;;;1.55;;
23658;SDS011;12006;42.666;23.326;2023-05-29T14:45:17;2.75;;;1.52;;
23658;SDS011;12006;42.666;23.326;2023-05-29T14:47:43;3.55;;;2.10;;
23658;SDS011;12006;42.666;23.326;2023-05-29T14:50:08;1.83;;;1.73;;
23658;SDS011;12006;42.666;23.326;2023-05-29T14:52:34;2.95;;;1.80;;
23658;SDS011;12006;42.666;23.326;2023-05-29T14:55:09;1.77;;;1.67;;
23658;SDS011;12006;42.666;23.326;2023-05-29T14:57:35;1.85;;;1.65;;
23658;SDS011;12006;42.666;23.326;2023-05-29T15:00:01;2.13;;;1.80;;
23658;SDS011;12006;42.666;23.326;2023-05-29T15:02:26;1.63;;;1.52;;
23658;SDS011;12006;42.666;23.326;2023-05-29T15:04:52;2.13;;;1.98;;